Time;durP1;ratioP1;P1;durP2;ratioP2;P2;SDS_P1;SDS_P2;PMS_P1;PMS_P2;Temp;Humidity;BMP_temperature;BMP_pressure;BME280_temperature;BME280_humidity;BME280_pressure;Samples;Min_cycle;Max_cycle;Signal;HPM_P1;HPM_P2
2024/01/04 00:02:08;;;;;;;1.50;1.50;;;21.90;52.80;;;;;;5032477;28;20472;-65
2024/01/04 00:04:35;;;;;;;1.90;1.80;;;21.90;52.90;;;;;;5027089;28;20561;-65
2024/01/04 00:07:02;;;;;;;1.70;1.70;;;21.90;52.90;;;;;;5033913;28;20495;-66
2024/01/04 00:09:29;;;;;;;1.90;1.90;;;21.80;52.90;;;;;;5033919;28;20505;-65
2024/01/04 00:11:56;;;;;;;1.73;1.73;;;21.80;53.00;;;;;;5032991;28;20489;-65
2024/01/04 00:14:23;;;;;;;1.80;1.80;;;21.80;53.00;;;;;;5033524;28;20460;-66
2024/01/04 00:16:50;;;;;;;1.80;1.80;;;21.80;53.10;;;;;;5033900;28;20473;-65
2024/01/04 00:19:18;;;;;;;1.80;1.80;;;21.70;53.10;;;;;;5033646;28;20854;-65
2024/01/04 00:21:45;;;;;;;2.17;1.97;;;21.70;53.20;;;;;;5033575;28;20480;-66
2024/01/04 00:24:12;;;;;;;2.43;1.97;;;21.70;53.10;;;;;;5032380;28;20497;-66
2024/01/04 00:26:39;;;;;;;1.80;1.80;;;21.70;53.20;;;;;;5033720;28;20859;-65
2024/01/04 00:29:06;;;;;;;1.60;1.60;;;21.70;53.20;;;;;;5033337;28;20512;-65
2024/01/04 00:31:33;;;;;;;2.50;2.07;;;21.60;53.20;;;;;;5033412;28;20484;-65
2024/01/04 00:34:00;;;;;;;1.70;1.70;;;21.60;53.20;;;;;;5032618;28;20464;-65
2024/01/04 00:36:29;;;;;;;1.90;1.80;;;21.60;53.30;;;;;;5033261;28;20469;-65
2024/01/04 00:38:56;;;;;;;1.70;1.70;;;21.50;53.30;;;;;;5033385;28;20456;-65
2024/01/04 00:41:23;;;;;;;1.60;1.60;;;21.50;53.30;;;;;;5033156;28;20444;-66
2024/01/04 00:43:50;;;;;;;1.80;1.70;;;21.50;53.40;;;;;;5032705;28;20481;-65
2024/01/04 00:46:16;;;;;;;1.70;1.70;;;21.50;53.40;;;;;;5033101;28;20476;-65
2024/01/04 00:48:43;;;;;;;1.93;1.83;;;21.50;53.40;;;;;;5033251;28;20481;-65
2024/01/04 00:51:10;;;;;;;1.90;1.70;;;21.50;53.50;;;;;;5032915;28;20519;-65
2024/01/04 00:53:39;;;;;;;1.80;1.80;;;21.50;53.60;;;;;;5032662;28;20473;-65
2024/01/04 00:56:06;;;;;;;1.80;1.80;;;21.50;53.60;;;;;;5032220;28;20449;-65
2024/01/04 00:58:33;;;;;;;1.80;1.80;;;21.40;53.60;;;;;;5033058;28;20469;-65
2024/01/04 01:01:03;;;;;;;1.70;1.70;;;21.40;53.60;;;;;;5026114;28;20476;-66
2024/01/04 01:03:30;;;;;;;1.63;1.63;;;21.40;53.60;;;;;;5025475;28;20455;-65
2024/01/04 01:05:57;;;;;;;1.70;1.70;;;21.40;53.70;;;;;;5032863;28;20895;-65
2024/01/04 01:08:25;;;;;;;1.97;1.87;;;21.40;53.70;;;;;;5032684;28;20951;-65
2024/01/04 01:10:53;;;;;;;1.80;1.80;;;21.40;53.70;;;;;;5031148;28;20477;-65
2024/01/04 01:13:22;;;;;;;1.70;1.70;;;21.40;53.80;;;;;;5032739;28;20480;-65
2024/01/04 01:15:49;;;;;;;1.80;1.80;;;21.30;53.80;;;;;;5032517;28;20475;-65
2024/01/04 01:18:16;;;;;;;1.80;1.70;;;21.30;53.80;;;;;;5029641;28;20498;-65
2024/01/04 01:20:43;;;;;;;1.90;1.90;;;21.30;53.80;;;;;;5026512;28;20921;-65
2024/01/04 01:23:09;;;;;;;1.73;1.63;;;21.30;53.90;;;;;;5032482;28;20477;-65
2024/01/04 01:25:36;;;;;;;1.60;1.50;;;21.30;53.90;;;;;;5032484;28;20561;-65
2024/01/04 01:28:05;;;;;;;2.20;2.10;;;21.30;53.90;;;;;;5029408;28;20477;-66
2024/01/04 01:30:32;;;;;;;1.83;1.83;;;21.30;53.90;;;;;;5032298;28;20477;-65
2024/01/04 01:32:59;;;;;;;1.80;1.80;;;21.20;53.80;;;;;;5032525;28;20441;-65
2024/01/04 01:35:26;;;;;;;1.60;1.60;;;21.20;53.90;;;;;;5032095;28;20500;-66
2024/01/04 01:37:52;;;;;;;1.60;1.60;;;21.20;53.90;;;;;;5030891;28;20477;-65
2024/01/04 01:40:19;;;;;;;1.90;1.80;;;21.20;54.00;;;;;;5031016;28;20983;-65
2024/01/04 01:42:49;;;;;;;1.80;1.70;;;21.20;54.00;;;;;;5032283;28;20512;-66
2024/01/04 01:45:18;;;;;;;1.70;1.70;;;21.20;54.00;;;;;;5031947;28;20600;-66
2024/01/04 01:47:46;;;;;;;1.53;1.53;;;21.20;54.10;;;;;;5031370;28;20469;-65
2024/01/04 01:50:14;;;;;;;1.80;1.80;;;21.20;54.10;;;;;;5029885;28;20512;-65
2024/01/04 01:52:42;;;;;;;1.80;1.80;;;21.10;54.10;;;;;;5031983;28;20480;-66
2024/01/04 01:55:10;;;;;;;2.07;2.00;;;21.10;54.10;;;;;;5031737;28;20493;-66
2024/01/04 01:57:37;;;;;;;1.70;1.70;;;21.10;54.10;;;;;;5032014;28;20472;-65
2024/01/04 02:00:06;;;;;;;1.80;1.80;;;21.10;54.10;;;;;;5029389;28;20473;-65
2024/01/04 02:02:35;;;;;;;1.60;1.60;;;21.10;54.20;;;;;;5029727;28;20449;-66
2024/01/04 02:05:02;;;;;;;2.00;2.00;;;21.10;54.20;;;;;;5031800;28;20561;-65
2024/01/04 02:07:29;;;;;;;1.90;1.90;;;21.10;54.20;;;;;;5023743;28;20527;-65
2024/01/04 02:09:56;;;;;;;1.87;1.77;;;21.10;54.20;;;;;;5030278;28;20512;-65
2024/01/04 02:12:23;;;;;;;1.90;1.80;;;21.10;54.20;;;;;;5031795;28;20476;-65
2024/01/04 02:14:54;;;;;;;1.83;1.73;;;21.10;54.30;;;;;;5031573;28;20500;-65
2024/01/04 02:17:21;;;;;;;1.70;1.70;;;21.10;54.30;;;;;;5031594;28;20449;-65
2024/01/04 02:19:50;;;;;;;2.00;1.90;;;21.00;54.30;;;;;;5025116;28;20465;-65
2024/01/04 02:22:17;;;;;;;1.60;1.60;;;21.10;54.40;;;;;;5031024;28;20476;-65
2024/01/04 02:24:45;;;;;;;1.70;1.60;;;21.00;54.20;;;;;;5031489;28;20523;-65
2024/01/04 02:27:13;;;;;;;1.60;1.60;;;21.00;54.30;;;;;;5031535;28;20505;-65
2024/01/04 02:29:40;;;;;;;1.73;1.63;;;21.00;54.40;;;;;;5030547;28;20476;-66
2024/01/04 02:32:07;;;;;;;1.80;1.80;;;21.00;54.30;;;;;;5031390;28;20473;-65
2024/01/04 02:34:34;;;;;;;2.30;2.20;;;21.00;54.40;;;;;;5031393;28;20984;-65
2024/01/04 02:37:01;;;;;;;2.03;1.93;;;21.00;54.40;;;;;;5031502;28;20535;-65
2024/01/04 02:39:28;;;;;;;1.87;1.77;;;21.00;54.40;;;;;;5025750;28;20473;-65
2024/01/04 02:41:56;;;;;;;1.50;1.50;;;21.00;54.40;;;;;;5031300;28;20481;-66
2024/01/04 02:44:23;;;;;;;1.70;1.60;;;21.00;54.50;;;;;;5031219;28;20462;-65
2024/01/04 02:46:50;;;;;;;1.77;1.67;;;21.00;54.50;;;;;;5031322;28;20465;-65
2024/01/04 02:49:17;;;;;;;1.57;1.57;;;21.00;54.60;;;;;;5030499;28;20476;-65
2024/01/04 02:51:44;;;;;;;2.00;2.00;;;21.00;54.60;;;;;;5031149;28;20505;-66
2024/01/04 02:54:11;;;;;;;1.73;1.73;;;20.90;54.50;;;;;;5031138;28;20821;-65
2024/01/04 02:56:37;;;;;;;2.83;2.00;;;20.90;54.60;;;;;;5029950;28;20468;-65
2024/01/04 02:59:07;;;;;;;6.53;1.73;;;20.90;54.60;;;;;;5032680;28;20441;-65
2024/01/04 03:01:34;;;;;;;1.60;1.60;;;20.90;54.50;;;;;;5035512;28;20929;-65
2024/01/04 03:04:01;;;;;;;1.70;1.63;;;20.90;54.60;;;;;;5035624;28;21184;-65
2024/01/04 03:06:30;;;;;;;1.60;1.50;;;20.90;54.70;;;;;;5035646;28;20444;-65
2024/01/04 03:08:57;;;;;;;2.23;2.07;;;20.90;54.70;;;;;;5035596;28;20445;-66
2024/01/04 03:11:24;;;;;;;1.80;1.70;;;20.90;54.70;;;;;;5035299;28;20963;-65
2024/01/04 03:13:51;;;;;;;1.63;1.63;;;20.90;54.70;;;;;;5035180;28;20476;-65
2024/01/04 03:16:21;;;;;;;1.80;1.70;;;20.90;54.70;;;;;;5035356;28;20476;-65
2024/01/04 03:18:48;;;;;;;1.50;1.50;;;20.90;54.70;;;;;;5035309;28;20437;-65
2024/01/04 03:21:15;;;;;;;1.50;1.50;;;20.80;54.70;;;;;;5035173;28;20475;-66
2024/01/04 03:23:42;;;;;;;1.67;1.67;;;20.90;54.80;;;;;;5035125;28;20476;-65
2024/01/04 03:26:09;;;;;;;2.07;1.97;;;20.80;54.80;;;;;;5032522;28;20870;-65
2024/01/04 03:28:36;;;;;;;1.70;1.70;;;20.90;54.90;;;;;;5015287;28;20477;-66
2024/01/04 03:31:03;;;;;;;1.60;1.60;;;20.80;54.90;;;;;;5015278;28;20517;-65
2024/01/04 03:33:31;;;;;;;1.80;1.70;;;20.90;54.90;;;;;;5015247;28;21005;-65
2024/01/04 03:35:58;;;;;;;2.00;2.00;;;20.80;54.90;;;;;;5016145;28;20452;-65
2024/01/04 03:38:25;;;;;;;1.60;1.60;;;20.80;54.90;;;;;;5035070;28;20472;-66
2024/01/04 03:40:52;;;;;;;2.00;2.00;;;20.80;54.90;;;;;;5034887;28;20473;-65
2024/01/04 03:43:19;;;;;;;1.60;1.60;;;20.80;54.90;;;;;;5034987;28;20481;-66
2024/01/04 03:45:46;;;;;;;1.70;1.70;;;20.80;54.90;;;;;;5034877;28;20496;-65
2024/01/04 03:48:12;;;;;;;1.60;1.50;;;20.90;55.00;;;;;;5015642;28;20449;-65
2024/01/04 03:50:41;;;;;;;1.70;1.70;;;20.80;54.90;;;;;;5014816;28;20919;-65
2024/01/04 03:53:08;;;;;;;1.83;1.73;;;20.80;54.90;;;;;;5015029;28;20853;-65
2024/01/04 03:55:35;;;;;;;1.70;1.70;;;20.80;55.00;;;;;;5015080;28;20461;-64
2024/01/04 03:58:02;;;;;;;1.93;1.93;;;20.80;55.00;;;;;;5015099;28;20473;-65
2024/01/04 04:00:29;;;;;;;1.80;1.80;;;20.80;55.00;;;;;;5014964;28;20442;-65
2024/01/04 04:02:56;;;;;;;2.00;1.90;;;20.80;55.10;;;;;;5014668;28;20941;-65
2024/01/04 04:05:23;;;;;;;1.90;1.90;;;20.80;55.10;;;;;;5014778;28;20461;-65
2024/01/04 04:07:51;;;;;;;2.00;2.00;;;20.80;55.10;;;;;;5014488;28;20466;-65
2024/01/04 04:10:18;;;;;;;1.70;1.70;;;20.80;55.10;;;;;;5014032;28;20477;-65
2024/01/04 04:12:45;;;;;;;1.60;1.60;;;20.80;55.10;;;;;;5014514;28;20474;-65
2024/01/04 04:15:12;;;;;;;1.90;1.90;;;20.80;55.20;;;;;;5022042;28;20508;-65
2024/01/04 04:17:38;;;;;;;2.10;2.10;;;20.80;55.20;;;;;;5034061;28;20473;-65
2024/01/04 04:20:06;;;;;;;1.60;1.60;;;20.80;55.20;;;;;;5034025;28;20872;-65
2024/01/04 04:22:34;;;;;;;1.83;1.83;;;20.80;55.20;;;;;;5034216;28;20472;-65
2024/01/04 04:25:02;;;;;;;1.80;1.80;;;20.80;55.20;;;;;;5028694;28;20462;-64
2024/01/04 04:27:29;;;;;;;1.83;1.83;;;20.80;55.20;;;;;;5014211;28;20482;-65
2024/01/04 04:29:56;;;;;;;1.90;1.80;;;20.80;55.20;;;;;;5014145;28;20481;-65
2024/01/04 04:32:23;;;;;;;2.10;2.00;;;20.70;55.20;;;;;;5013813;28;20518;-65
2024/01/04 04:34:49;;;;;;;1.83;1.83;;;20.80;55.30;;;;;;5014172;28;20516;-65
2024/01/04 04:37:16;;;;;;;2.00;2.00;;;20.70;55.20;;;;;;5013943;28;21031;-65
2024/01/04 04:39:43;;;;;;;1.87;1.80;;;20.80;55.30;;;;;;5013950;28;20478;-66
2024/01/04 04:42:12;;;;;;;1.80;1.80;;;20.80;55.30;;;;;;5013922;28;20441;-65
2024/01/04 04:44:39;;;;;;;1.90;1.90;;;20.70;55.20;;;;;;5013783;28;20497;-64
2024/01/04 04:47:06;;;;;;;1.80;1.80;;;20.70;55.30;;;;;;5013690;28;20501;-65
2024/01/04 04:49:32;;;;;;;1.87;1.87;;;20.70;55.20;;;;;;5013810;28;20854;-65
2024/01/04 04:51:59;;;;;;;1.80;1.80;;;20.70;55.20;;;;;;5013653;28;20517;-65
2024/01/04 04:54:26;;;;;;;1.80;1.80;;;20.70;55.20;;;;;;5013503;28;20498;-65
2024/01/04 04:56:53;;;;;;;2.00;2.00;;;20.80;55.30;;;;;;5013635;28;20470;-66
2024/01/04 04:59:21;;;;;;;2.27;2.17;;;20.80;55.20;;;;;;5013691;28;20481;-65
2024/01/04 05:01:48;;;;;;;1.70;1.70;;;20.80;55.30;;;;;;5013463;28;20495;-65
2024/01/04 05:04:15;;;;;;;2.13;2.13;;;20.70;55.30;;;;;;5013738;28;20548;-64
2024/01/04 05:06:42;;;;;;;2.00;2.00;;;20.80;55.30;;;;;;5013478;28;20478;-65
2024/01/04 05:09:09;;;;;;;2.10;2.10;;;20.80;55.30;;;;;;5013489;28;20485;-64
2024/01/04 05:11:36;;;;;;;1.67;1.67;;;20.70;55.30;;;;;;5013364;28;20492;-65
2024/01/04 05:14:03;;;;;;;1.97;1.80;;;20.70;55.30;;;;;;5013189;28;20498;-65
2024/01/04 05:16:31;;;;;;;1.90;1.90;;;20.70;55.30;;;;;;5013265;28;20866;-65
2024/01/04 05:18:58;;;;;;;1.80;1.80;;;20.80;55.40;;;;;;5013255;28;20474;-65
2024/01/04 05:21:25;;;;;;;1.80;1.80;;;20.80;55.40;;;;;;5013408;28;21031;-66
2024/01/04 05:23:52;;;;;;;1.97;1.97;;;20.80;55.50;;;;;;5019454;28;20473;-66
2024/01/04 05:26:21;;;;;;;2.17;2.17;;;20.70;55.40;;;;;;5032851;28;20445;-65
2024/01/04 05:28:48;;;;;;;2.50;2.40;;;20.80;55.50;;;;;;5032836;28;20441;-65
2024/01/04 05:31:17;;;;;;;2.10;2.00;;;20.70;55.50;;;;;;5032660;28;20504;-65
2024/01/04 05:33:46;;;;;;;1.90;1.90;;;20.80;55.60;;;;;;5026231;28;20450;-66
2024/01/04 05:36:13;;;;;;;2.10;2.10;;;20.80;55.50;;;;;;5012939;28;20477;-65
2024/01/04 05:38:40;;;;;;;2.00;2.00;;;20.80;55.60;;;;;;5013059;28;20438;-65
2024/01/04 05:41:07;;;;;;;2.10;2.10;;;20.80;55.70;;;;;;5012870;28;21035;-65
2024/01/04 05:43:35;;;;;;;3.53;2.23;;;20.80;55.70;;;;;;5013006;28;20462;-65
2024/01/04 05:46:04;;;;;;;2.40;2.30;;;20.80;55.70;;;;;;5012678;28;20438;-66
2024/01/04 05:48:31;;;;;;;2.10;2.10;;;20.80;55.60;;;;;;5012736;28;20442;-65
2024/01/04 05:50:59;;;;;;;6.67;3.10;;;20.80;55.50;;;;;;5012631;28;20566;-65
2024/01/04 05:53:26;;;;;;;7.43;4.83;;;20.80;55.80;;;;;;5029307;28;20476;-65
2024/01/04 05:55:53;;;;;;;4.10;3.73;;;20.80;56.20;;;;;;5032518;28;20469;-69
2024/01/04 05:58:20;;;;;;;5.80;3.53;;;20.90;57.20;;;;;;5023839;28;20488;-67
2024/01/04 06:00:47;;;;;;;6.13;4.00;;;20.90;58.40;;;;;;5012572;28;20504;-66
2024/01/04 06:03:14;;;;;;;6.27;4.20;;;20.90;58.20;;;;;;5012521;28;20473;-67
2024/01/04 06:05:41;;;;;;;7.70;3.87;;;20.90;57.90;;;;;;5012598;28;20920;-67
2024/01/04 06:08:09;;;;;;;4.93;3.43;;;20.90;57.70;;;;;;5012416;28;20925;-67
2024/01/04 06:10:36;;;;;;;10.00;3.60;;;20.90;57.50;;;;;;5012100;28;20481;-67
2024/01/04 06:13:03;;;;;;;3.70;3.20;;;20.90;57.20;;;;;;5012694;28;20941;-67
2024/01/04 06:15:30;;;;;;;4.27;3.57;;;20.90;57.10;;;;;;5012725;28;20517;-67
2024/01/04 06:17:57;;;;;;;5.27;3.40;;;20.90;57.00;;;;;;5012540;28;20477;-66
2024/01/04 06:20:24;;;;;;;7.33;4.00;;;20.90;56.80;;;;;;5012178;28;20861;-66
2024/01/04 06:22:52;;;;;;;4.57;3.27;;;20.90;56.50;;;;;;5012083;28;20953;-67
2024/01/04 06:25:21;;;;;;;3.00;2.90;;;20.90;56.50;;;;;;5012266;28;20465;-67
2024/01/04 06:27:48;;;;;;;4.80;3.53;;;20.90;56.40;;;;;;5012168;28;20496;-67
2024/01/04 06:30:16;;;;;;;4.43;3.70;;;20.90;56.20;;;;;;5012376;28;20536;-67
2024/01/04 06:32:42;;;;;;;3.93;3.53;;;21.00;56.20;;;;;;5012421;28;20513;-67
2024/01/04 06:35:09;;;;;;;5.23;3.20;;;21.00;56.20;;;;;;5012469;28;20494;-67
2024/01/04 06:37:36;;;;;;;3.90;3.10;;;20.90;56.00;;;;;;5012629;28;20469;-67
2024/01/04 06:40:05;;;;;;;4.83;3.50;;;21.00;56.00;;;;;;5012567;28;20481;-67
2024/01/04 06:42:36;;;;;;;4.80;3.90;;;20.90;55.80;;;;;;5012553;28;20534;-67
2024/01/04 06:45:04;;;;;;;6.40;3.60;;;21.00;56.20;;;;;;5012593;28;20498;-67
2024/01/04 06:47:30;;;;;;;4.20;3.43;;;21.00;55.90;;;;;;5012681;28;20437;-67
2024/01/04 06:49:57;;;;;;;4.00;2.40;;;21.00;55.80;;;;;;5012458;28;20477;-67
2024/01/04 06:52:24;;;;;;;2.87;2.33;;;21.00;55.80;;;;;;5012292;28;20524;-67
2024/01/04 06:54:52;;;;;;;2.87;2.63;;;21.00;55.70;;;;;;5012218;28;20899;-67
2024/01/04 06:57:18;;;;;;;3.23;2.93;;;21.00;55.60;;;;;;5012336;28;20481;-67
2024/01/04 06:59:47;;;;;;;4.30;2.50;;;21.00;55.50;;;;;;5012548;28;20998;-67
2024/01/04 07:02:14;;;;;;;2.87;2.67;;;21.00;55.50;;;;;;5012763;28;20481;-67
2024/01/04 07:04:42;;;;;;;3.17;2.60;;;21.00;55.50;;;;;;5012314;28;20516;-68
2024/01/04 07:07:09;;;;;;;3.63;3.33;;;21.00;55.40;;;;;;5012067;28;20446;-67
2024/01/04 07:09:37;;;;;;;3.47;2.57;;;21.00;55.40;;;;;;5012242;28;20442;-67
2024/01/04 07:12:05;;;;;;;5.90;3.20;;;21.00;55.30;;;;;;5011781;28;20489;-67
2024/01/04 07:14:37;;;;;;;3.30;3.10;;;21.00;55.30;;;;;;5012031;28;20517;-66
2024/01/04 07:17:07;;;;;;;3.63;3.43;;;21.00;55.30;;;;;;5012291;28;20450;-67
2024/01/04 07:19:34;;;;;;;3.10;2.90;;;21.00;55.20;;;;;;5012805;28;20537;-67
2024/01/04 07:22:01;;;;;;;3.33;2.20;;;21.00;55.20;;;;;;5013659;28;20469;-68
2024/01/04 07:24:28;;;;;;;2.97;2.87;;;21.00;55.20;;;;;;5012618;28;20484;-68
2024/01/04 07:26:55;;;;;;;2.70;2.60;;;21.00;55.10;;;;;;5012813;28;20858;-68
2024/01/04 07:29:23;;;;;;;2.30;2.20;;;21.00;55.00;;;;;;5012399;28;20449;-68
2024/01/04 07:31:50;;;;;;;2.20;2.20;;;21.00;55.00;;;;;;5012009;28;21119;-69
2024/01/04 07:34:18;;;;;;;2.30;2.10;;;21.00;54.90;;;;;;5012070;28;20462;-67
2024/01/04 07:36:45;;;;;;;2.63;2.50;;;21.00;54.90;;;;;;5012092;28;20492;-67
2024/01/04 07:39:12;;;;;;;2.70;2.50;;;21.00;54.90;;;;;;5011853;28;20477;-67
2024/01/04 07:41:38;;;;;;;2.20;2.10;;;21.00;54.80;;;;;;5012040;28;20886;-68
2024/01/04 07:44:05;;;;;;;2.17;2.10;;;21.00;54.80;;;;;;5011923;28;20493;-68
2024/01/04 07:46:32;;;;;;;2.43;2.30;;;21.00;54.80;;;;;;5013722;28;20874;-67
2024/01/04 07:48:59;;;;;;;2.07;2.07;;;21.00;55.30;;;;;;5015673;28;20473;-67
2024/01/04 07:51:28;;;;;;;2.90;2.63;;;21.00;54.70;;;;;;5015471;28;20503;-68
2024/01/04 07:53:55;;;;;;;2.70;2.50;;;21.00;54.70;;;;;;5015394;28;20552;-67
2024/01/04 07:56:22;;;;;;;2.57;2.37;;;21.00;54.70;;;;;;5015133;28;20470;-68
2024/01/04 07:58:48;;;;;;;2.00;2.00;;;21.00;54.70;;;;;;5015706;28;20470;-68
2024/01/04 08:01:15;;;;;;;2.50;2.40;;;21.00;54.60;;;;;;5014499;28;20504;-67
2024/01/04 08:03:42;;;;;;;2.00;2.00;;;21.00;54.70;;;;;;5014715;28;20473;-68
2024/01/04 08:06:10;;;;;;;2.77;2.67;;;21.00;54.40;;;;;;5014942;28;20536;-67
2024/01/04 08:08:39;;;;;;;2.30;2.00;;;21.00;54.40;;;;;;5014825;28;20474;-67
2024/01/04 08:11:05;;;;;;;2.33;2.23;;;21.00;54.40;;;;;;5014901;28;20446;-68
2024/01/04 08:13:32;;;;;;;2.53;2.43;;;21.00;54.40;;;;;;5014381;28;20516;-68
2024/01/04 08:16:00;;;;;;;2.10;2.10;;;21.00;54.40;;;;;;5014606;28;20477;-67
2024/01/04 08:18:28;;;;;;;2.30;2.20;;;21.00;54.30;;;;;;5014504;28;20557;-67
2024/01/04 08:20:54;;;;;;;2.43;2.33;;;21.00;54.40;;;;;;5014340;28;20965;-68
2024/01/04 08:23:21;;;;;;;2.50;2.13;;;21.00;54.30;;;;;;5014318;28;20470;-67
2024/01/04 08:25:50;;;;;;;2.40;2.30;;;21.00;54.30;;;;;;5014184;28;20486;-68
2024/01/04 08:28:16;;;;;;;3.10;2.90;;;21.00;54.20;;;;;;5014196;28;20903;-67
2024/01/04 08:30:43;;;;;;;2.47;2.37;;;21.00;54.20;;;;;;5014234;28;20469;-67
2024/01/04 08:33:10;;;;;;;2.90;2.70;;;21.00;54.30;;;;;;5014419;28;20656;-67
2024/01/04 08:35:37;;;;;;;2.20;2.10;;;21.00;54.20;;;;;;5014289;28;20512;-68
2024/01/04 08:38:04;;;;;;;2.60;2.40;;;21.00;54.20;;;;;;5014183;28;20508;-67
2024/01/04 08:40:31;;;;;;;2.50;2.30;;;21.00;54.20;;;;;;5014370;28;20760;-68
2024/01/04 08:42:59;;;;;;;2.20;2.20;;;21.00;54.10;;;;;;5013772;28;20474;-68
2024/01/04 08:45:26;;;;;;;2.20;2.10;;;21.00;54.20;;;;;;5014000;28;20485;-68
2024/01/04 08:47:53;;;;;;;2.73;2.63;;;21.00;54.10;;;;;;5014467;28;20500;-68
2024/01/04 08:50:20;;;;;;;2.77;2.20;;;21.00;54.10;;;;;;5013854;28;20478;-68
2024/01/04 08:52:47;;;;;;;2.40;2.40;;;21.00;54.10;;;;;;5014258;28;20513;-68
2024/01/04 08:55:14;;;;;;;2.50;2.50;;;21.00;54.10;;;;;;5014878;28;20897;-68
2024/01/04 08:57:41;;;;;;;2.63;2.53;;;21.00;54.10;;;;;;5014012;28;20521;-67
2024/01/04 09:00:11;;;;;;;2.80;2.80;;;21.00;54.20;;;;;;5014379;28;20478;-67
2024/01/04 09:02:38;;;;;;;2.63;2.53;;;21.00;54.10;;;;;;5014124;28;20438;-67
2024/01/04 09:05:06;;;;;;;2.40;2.40;;;21.00;54.10;;;;;;5013834;28;20961;-68
2024/01/04 09:07:33;;;;;;;2.73;2.73;;;21.00;54.10;;;;;;5014091;28;20472;-67
2024/01/04 09:10:00;;;;;;;3.30;3.10;;;21.00;54.10;;;;;;5014043;28;20478;-68
2024/01/04 09:12:27;;;;;;;2.23;2.23;;;21.00;54.10;;;;;;5013597;28;20518;-68
2024/01/04 09:14:54;;;;;;;2.10;2.10;;;21.00;54.30;;;;;;5013359;28;20505;-68
2024/01/04 09:17:22;;;;;;;1.93;1.83;;;21.00;54.10;;;;;;5013371;28;20470;-68
2024/01/04 09:19:50;;;;;;;2.00;2.00;;;21.00;54.10;;;;;;5013327;28;20870;-67
2024/01/04 09:22:17;;;;;;;1.90;1.90;;;21.00;54.00;;;;;;5013364;28;20438;-67
2024/01/04 09:24:45;;;;;;;2.90;2.77;;;21.00;54.00;;;;;;5013430;28;20891;-67
2024/01/04 09:27:12;;;;;;;2.03;2.03;;;21.00;54.00;;;;;;5013384;28;20813;-67
2024/01/04 09:29:41;;;;;;;1.77;1.77;;;21.00;53.90;;;;;;5013240;28;20473;-68
2024/01/04 09:32:08;;;;;;;2.53;2.47;;;21.00;53.90;;;;;;5013054;28;20925;-67
2024/01/04 09:34:37;;;;;;;2.10;2.10;;;21.00;53.90;;;;;;5013432;28;20466;-67
2024/01/04 09:37:04;;;;;;;2.00;2.00;;;21.00;54.00;;;;;;5013495;28;20476;-68
2024/01/04 09:39:31;;;;;;;2.00;2.00;;;21.00;54.00;;;;;;5013677;28;20485;-67
2024/01/04 09:42:01;;;;;;;2.33;2.33;;;21.00;53.80;;;;;;5013655;28;20444;-67
2024/01/04 09:44:29;;;;;;;2.40;2.37;;;21.00;53.90;;;;;;5014099;28;20491;-68
2024/01/04 09:46:59;;;;;;;2.43;2.43;;;21.00;53.90;;;;;;5013895;28;20478;-67
2024/01/04 09:49:26;;;;;;;2.27;2.27;;;21.00;53.80;;;;;;5014128;28;20470;-68
2024/01/04 09:51:54;;;;;;;2.60;2.50;;;21.00;53.80;;;;;;5013328;28;20477;-67
2024/01/04 09:54:24;;;;;;;2.47;2.27;;;21.00;53.80;;;;;;5013255;28;20458;-67
2024/01/04 09:56:53;;;;;;;2.30;2.20;;;21.00;53.80;;;;;;5013040;28;21026;-67
2024/01/04 09:59:20;;;;;;;2.83;2.70;;;21.00;53.80;;;;;;5013012;28;20933;-67
2024/01/04 10:01:49;;;;;;;2.60;2.50;;;21.00;53.70;;;;;;5013043;28;20442;-67
2024/01/04 10:04:17;;;;;;;2.70;2.50;;;21.00;53.80;;;;;;5013176;28;20462;-67
2024/01/04 10:06:45;;;;;;;2.40;2.40;;;21.00;53.70;;;;;;5012956;28;20933;-67
2024/01/04 10:09:20;;;;;;;2.37;2.37;;;21.00;53.70;;;;;;5012940;28;20476;-67
2024/01/04 10:12:02;;;;;;;2.40;2.40;;;21.00;53.70;;;;;;5013508;28;20438;-67
2024/01/04 10:14:30;;;;;;;2.30;2.30;;;21.00;53.70;;;;;;5013312;28;20481;-67
2024/01/04 10:16:57;;;;;;;2.37;2.37;;;21.00;53.70;;;;;;5012797;28;20465;-67
2024/01/04 10:19:25;;;;;;;2.40;2.30;;;21.00;53.60;;;;;;5013112;28;20465;-67
2024/01/04 10:21:52;;;;;;;2.40;2.30;;;21.00;53.60;;;;;;5013030;28;20474;-68
2024/01/04 10:24:24;;;;;;;3.03;2.93;;;21.00;53.60;;;;;;5012993;28;20490;-67
2024/01/04 10:26:55;;;;;;;2.70;2.63;;;21.00;53.70;;;;;;5012729;28;20466;-67
2024/01/04 10:29:22;;;;;;;2.20;2.20;;;21.00;53.60;;;;;;5013273;28;20440;-68
2024/01/04 10:31:58;;;;;;;2.53;2.50;;;21.00;53.60;;;;;;5012875;28;20452;-67
2024/01/04 10:34:25;;;;;;;2.37;2.20;;;21.00;53.60;;;;;;5013129;28;20496;-67
2024/01/04 10:36:52;;;;;;;2.40;2.40;;;21.00;53.60;;;;;;5012656;28;20986;-67
2024/01/04 10:39:21;;;;;;;2.33;2.33;;;21.00;53.60;;;;;;5013102;28;20470;-68
2024/01/04 10:41:59;;;;;;;2.27;2.27;;;21.00;53.60;;;;;;5013064;28;20434;-67
2024/01/04 10:44:27;;;;;;;2.30;2.27;;;21.00;53.60;;;;;;5012139;28;20465;-67
2024/01/04 10:46:57;;;;;;;2.50;2.50;;;21.00;53.50;;;;;;5011716;28;20477;-67
2024/01/04 10:49:25;;;;;;;2.60;2.50;;;21.00;53.50;;;;;;5011673;28;20867;-67
2024/01/04 10:51:53;;;;;;;2.30;2.30;;;21.00;53.50;;;;;;5011685;28;20537;-67
2024/01/04 10:54:21;;;;;;;2.50;2.40;;;21.00;53.50;;;;;;5011475;28;20486;-67
2024/01/04 10:56:48;;;;;;;2.43;2.43;;;21.00;53.40;;;;;;5011574;28;20504;-66
2024/01/04 10:59:18;;;;;;;2.57;2.57;;;21.00;53.50;;;;;;5011802;28;20516;-67
2024/01/04 11:01:46;;;;;;;2.30;2.30;;;21.00;53.50;;;;;;5011606;28;20945;-67
2024/01/04 11:04:14;;;;;;;2.70;2.70;;;21.00;53.50;;;;;;5011458;28;20547;-67
2024/01/04 11:06:40;;;;;;;2.13;2.13;;;21.00;53.40;;;;;;5011517;28;20434;-67
2024/01/04 11:09:08;;;;;;;2.47;2.43;;;21.00;53.50;;;;;;5011461;28;20870;-67
2024/01/04 11:11:36;;;;;;;2.23;2.23;;;21.00;53.40;;;;;;5011494;28;20477;-67
2024/01/04 11:14:02;;;;;;;2.20;2.20;;;21.00;53.50;;;;;;5011234;28;20485;-67
2024/01/04 11:16:46;;;;;;;2.20;2.20;;;21.00;53.50;;;;;;5011493;28;20864;-66
2024/01/04 11:19:23;;;;;;;2.60;2.50;;;21.00;53.40;;;;;;5011489;28;20472;-67
2024/01/04 11:22:09;;;;;;;2.70;2.60;;;21.00;53.40;;;;;;5013804;28;20496;-67
2024/01/04 11:24:45;;;;;;;2.30;2.30;;;21.00;53.50;;;;;;5015118;28;20461;-67
2024/01/04 11:27:17;;;;;;;2.30;2.30;;;21.00;53.50;;;;;;5015131;28;20495;-67
2024/01/04 11:29:44;;;;;;;2.50;2.50;;;21.00;53.50;;;;;;5015171;28;20969;-66
2024/01/04 11:32:13;;;;;;;2.30;2.30;;;21.00;53.50;;;;;;5014898;28;20477;-67
2024/01/04 11:34:41;;;;;;;2.23;2.20;;;21.00;53.50;;;;;;5014919;28;20905;-67
2024/01/04 11:37:12;;;;;;;2.40;2.40;;;21.00;53.50;;;;;;5015138;28;20465;-67
2024/01/04 11:39:58;;;;;;;2.20;2.17;;;21.00;53.40;;;;;;5014867;28;20496;-68
2024/01/04 11:42:32;;;;;;;2.10;2.10;;;21.00;53.40;;;;;;5014710;28;20481;-67
2024/01/04 11:44:59;;;;;;;2.30;2.30;;;21.00;53.40;;;;;;5014709;28;20825;-67
2024/01/04 11:47:28;;;;;;;2.20;2.20;;;21.00;53.40;;;;;;5014805;28;20448;-67
2024/01/04 11:49:59;;;;;;;2.20;2.13;;;21.00;53.40;;;;;;5014731;28;20477;-67
2024/01/04 11:52:28;;;;;;;2.20;2.20;;;21.00;53.40;;;;;;5014432;28;20442;-66
2024/01/04 11:54:55;;;;;;;2.20;2.20;;;21.00;53.30;;;;;;5014478;28;20468;-67
2024/01/04 11:57:23;;;;;;;2.27;2.27;;;21.00;53.30;;;;;;5014633;28;20474;-68
2024/01/04 11:59:51;;;;;;;2.30;2.30;;;21.00;53.30;;;;;;5014503;28;20488;-67
2024/01/04 12:02:22;;;;;;;2.30;2.30;;;21.00;53.30;;;;;;5014453;28;20794;-67
2024/01/04 12:04:50;;;;;;;2.67;2.67;;;21.00;53.30;;;;;;5014199;28;20530;-67
2024/01/04 12:07:18;;;;;;;2.30;2.30;;;21.00;53.40;;;;;;5014160;28;20470;-66
2024/01/04 12:09:55;;;;;;;2.60;2.60;;;21.00;53.30;;;;;;5014292;28;20469;-67
2024/01/04 12:12:22;;;;;;;2.70;2.70;;;21.00;53.30;;;;;;5014220;28;20473;-67
2024/01/04 12:14:49;;;;;;;2.60;2.37;;;21.00;53.20;;;;;;5013956;28;21050;-67
2024/01/04 12:17:16;;;;;;;2.50;2.40;;;21.00;53.30;;;;;;5014252;28;20872;-67
2024/01/04 12:19:42;;;;;;;2.40;2.40;;;21.00;53.30;;;;;;5014152;28;20437;-67
2024/01/04 12:22:11;;;;;;;2.37;2.37;;;21.00;53.30;;;;;;5013946;28;20474;-66
2024/01/04 12:24:40;;;;;;;2.47;2.47;;;21.00;53.30;;;;;;5013931;28;20494;-67
2024/01/04 12:27:07;;;;;;;2.30;2.30;;;21.00;53.80;;;;;;5014068;28;20489;-66
2024/01/04 12:29:34;;;;;;;2.17;2.17;;;21.00;53.30;;;;;;5013827;28;20483;-67
2024/01/04 12:32:04;;;;;;;2.03;2.03;;;21.00;53.20;;;;;;5013371;28;20469;-66
2024/01/04 12:34:31;;;;;;;2.60;2.60;;;21.00;53.20;;;;;;5013661;28;20514;-67
2024/01/04 12:37:06;;;;;;;2.10;2.10;;;21.00;53.20;;;;;;5013736;28;20946;-66
2024/01/04 12:39:35;;;;;;;2.63;2.50;;;21.00;53.20;;;;;;5013847;28;20540;-67
2024/01/04 12:42:02;;;;;;;2.70;2.70;;;21.00;53.20;;;;;;5013544;28;20536;-67
2024/01/04 12:44:30;;;;;;;2.30;2.30;;;21.00;53.20;;;;;;5013691;28;20462;-67
2024/01/04 12:47:05;;;;;;;2.23;2.23;;;21.00;53.20;;;;;;5013597;28;20473;-66
2024/01/04 12:49:32;;;;;;;2.50;2.40;;;21.00;53.20;;;;;;5013548;28;20517;-66
2024/01/04 12:52:09;;;;;;;2.00;2.00;;;21.00;53.20;;;;;;5013642;28;20442;-66